createdAt,value
2018-04-24T00:00:48.047Z,0.00
2018-04-24T00:01:48.063Z,0.00
2018-04-24T00:02:48.080Z,0.00
2018-04-24T00:03:48.096Z,0.00
2018-04-24T00:04:48.123Z,0.00
2018-04-24T00:05:48.129Z,0.00
2018-04-24T00:06:48.151Z,0.00
2018-04-24T00:07:48.165Z,0.00
2018-04-24T00:08:48.183Z,0.00
2018-04-24T00:09:48.230Z,0.00
2018-04-24T00:10:48.217Z,0.00
2018-04-24T00:11:48.236Z,0.00
2018-04-24T00:12:48.254Z,0.00
2018-04-24T00:13:48.271Z,0.00
2018-04-24T00:14:48.289Z,0.00
2018-04-24T00:15:48.309Z,0.00
2018-04-24T00:16:48.328Z,0.00
2018-04-24T00:17:48.340Z,0.00
2018-04-24T00:18:48.362Z,0.00
2018-04-24T00:19:48.383Z,0.00
2018-04-24T00:20:48.399Z,0.00
2018-04-24T00:21:48.415Z,0.00
2018-04-24T00:22:48.442Z,0.00
2018-04-24T00:23:48.449Z,0.00
2018-04-24T00:24:48.469Z,0.00
2018-04-24T00:25:48.485Z,0.00
2018-04-24T00:26:48.498Z,0.00
2018-04-24T00:27:48.522Z,0.00
2018-04-24T00:28:48.544Z,0.00
2018-04-24T00:29:48.560Z,0.00
2018-04-24T00:30:48.576Z,0.00
2018-04-24T00:31:48.589Z,0.00
2018-04-24T00:32:48.613Z,0.00
2018-04-24T00:33:48.624Z,0.00
2018-04-24T00:34:48.648Z,0.00
2018-04-24T00:35:48.672Z,0.00
2018-04-24T00:36:48.678Z,0.00
2018-04-24T00:37:48.694Z,0.00
2018-04-24T00:38:48.723Z,0.00
2018-04-24T00:39:48.749Z,0.00
2018-04-24T00:40:48.747Z,0.00
2018-04-24T00:41:48.773Z,0.00
2018-04-24T00:42:48.788Z,0.00
2018-04-24T00:43:48.799Z,0.00
2018-04-24T00:44:48.821Z,0.00
2018-04-24T00:45:48.883Z,0.00
2018-04-24T00:46:48.863Z,0.00
2018-04-24T00:47:48.870Z,0.00
2018-04-24T00:48:48.891Z,0.00
2018-04-24T00:49:48.908Z,0.00
2018-04-24T00:50:48.936Z,0.00
2018-04-24T00:51:48.943Z,0.00
2018-04-24T00:52:48.961Z,0.00
2018-04-24T00:53:48.982Z,0.00
2018-04-24T00:54:49.008Z,0.00
2018-04-24T00:55:49.017Z,0.00
2018-04-24T00:56:49.034Z,0.00
2018-04-24T00:57:49.050Z,0.00
2018-04-24T00:58:49.070Z,0.00
2018-04-24T00:59:49.095Z,0.00
2018-04-24T01:00:49.106Z,0.00
2018-04-24T01:01:49.128Z,0.00
2018-04-24T01:02:49.137Z,0.00
2018-04-24T01:03:49.154Z,0.00
2018-04-24T01:04:49.170Z,0.00
2018-04-24T01:05:49.211Z,0.00
2018-04-24T01:06:49.245Z,0.00
2018-04-24T01:07:49.266Z,0.00
2018-04-24T01:08:49.242Z,0.00
2018-04-24T01:09:49.258Z,0.00
2018-04-24T01:10:49.274Z,0.00
2018-04-24T01:11:49.302Z,0.00
2018-04-24T01:12:49.314Z,0.00
2018-04-24T01:13:49.351Z,0.00
2018-04-24T01:14:49.348Z,0.00
2018-04-24T01:15:49.368Z,0.00
2018-04-24T01:16:49.384Z,0.00
2018-04-24T01:17:49.409Z,0.00
2018-04-24T01:18:49.426Z,0.00
2018-04-24T01:19:49.435Z,0.00
2018-04-24T01:20:49.463Z,0.00
2018-04-24T01:21:49.476Z,0.00
2018-04-24T01:22:49.497Z,0.00
2018-04-24T01:23:49.533Z,0.00
2018-04-24T01:24:49.529Z,0.00
2018-04-24T01:25:49.542Z,0.00
2018-04-24T01:26:49.558Z,0.00
2018-04-24T01:27:49.577Z,0.00
2018-04-24T01:28:49.596Z,0.00
2018-04-24T01:29:49.628Z,0.00
2018-04-24T01:30:49.638Z,0.00
2018-04-24T01:31:49.668Z,0.00
2018-04-24T01:32:49.666Z,0.00
2018-04-24T01:33:49.683Z,0.00
2018-04-24T01:34:49.701Z,0.00
2018-04-24T01:35:49.725Z,0.00
2018-04-24T01:36:49.744Z,0.00
2018-04-24T01:37:49.756Z,0.00
2018-04-24T01:38:49.778Z,0.00
2018-04-24T01:39:49.787Z,0.00
2018-04-24T01:40:49.828Z,0.00
2018-04-24T01:41:49.824Z,0.00
2018-04-24T01:42:49.842Z,0.00
2018-04-24T01:43:49.859Z,0.00
2018-04-24T01:44:49.880Z,0.00
2018-04-24T01:45:49.897Z,0.00
2018-04-24T01:46:49.916Z,0.00
2018-04-24T01:47:49.939Z,0.00
2018-04-24T01:48:49.948Z,0.00
2018-04-24T01:49:49.988Z,0.00
2018-04-24T01:50:49.993Z,0.00
2018-04-24T01:51:50.007Z,0.00
2018-04-24T01:52:50.020Z,0.00
2018-04-24T01:53:50.036Z,0.00
2018-04-24T01:54:50.081Z,0.00
2018-04-24T01:55:50.103Z,0.00
2018-04-24T01:56:50.090Z,0.00
2018-04-24T01:57:50.104Z,0.00
2018-04-24T01:58:50.119Z,0.00
2018-04-24T01:59:50.136Z,0.00
2018-04-24T02:00:50.158Z,0.00
2018-04-24T02:01:50.173Z,0.00
2018-04-24T02:02:50.190Z,0.00
2018-04-24T02:03:50.211Z,0.00
2018-04-24T02:04:50.222Z,0.00
2018-04-24T02:05:50.241Z,0.00
2018-04-24T02:06:50.261Z,0.00
2018-04-24T02:07:50.289Z,0.00
2018-04-24T02:08:50.291Z,0.00
2018-04-24T02:09:50.307Z,0.00
2018-04-24T02:10:50.334Z,0.00
2018-04-24T02:11:50.344Z,0.00
2018-04-24T02:12:50.386Z,0.00
2018-04-24T02:13:50.382Z,0.00
2018-04-24T02:14:50.406Z,0.00
2018-04-24T02:15:50.417Z,0.00
2018-04-24T02:16:50.456Z,0.00
2018-04-24T02:17:50.448Z,0.00
2018-04-24T02:18:50.474Z,0.00
2018-04-24T02:19:50.479Z,0.00
2018-04-24T02:20:50.500Z,0.00
2018-04-24T02:21:50.536Z,0.00
2018-04-24T02:22:50.554Z,0.00
2018-04-24T02:23:50.554Z,0.00
2018-04-24T02:24:50.573Z,0.00
2018-04-24T02:25:50.583Z,0.00
2018-04-24T02:26:50.605Z,0.00
2018-04-24T02:27:50.621Z,0.00
2018-04-24T02:28:50.637Z,0.00
2018-04-24T02:29:50.655Z,0.00
2018-04-24T02:30:50.673Z,0.00
2018-04-24T02:31:50.702Z,0.00
2018-04-24T02:32:50.724Z,0.00
2018-04-24T02:33:50.724Z,0.00
2018-04-24T02:34:50.741Z,0.00
2018-04-24T02:35:50.759Z,0.00
2018-04-24T02:36:50.836Z,0.00
2018-04-24T02:37:50.813Z,0.00
2018-04-24T02:38:50.815Z,0.00
2018-04-24T02:39:50.838Z,0.00
2018-04-24T02:40:50.854Z,0.00
2018-04-24T02:41:50.865Z,0.00
2018-04-24T02:42:50.880Z,0.00
2018-04-24T02:43:50.894Z,0.00
2018-04-24T02:44:50.920Z,0.00
2018-04-24T02:45:50.933Z,0.00
2018-04-24T02:46:50.946Z,0.00
2018-04-24T02:47:50.965Z,0.00
2018-04-24T02:48:50.991Z,0.00
2018-04-24T02:49:51.002Z,0.00
2018-04-24T02:50:51.018Z,0.00
2018-04-24T02:51:51.039Z,0.00
2018-04-24T02:52:51.052Z,0.00
2018-04-24T02:53:51.070Z,0.00
2018-04-24T02:54:51.091Z,0.00
2018-04-24T02:55:51.102Z,0.00
2018-04-24T02:56:51.121Z,0.00
2018-04-24T02:57:51.137Z,0.00
2018-04-24T02:58:51.156Z,0.00
2018-04-24T02:59:51.194Z,0.00
2018-04-24T03:00:51.187Z,0.00
2018-04-24T03:01:51.208Z,0.00
2018-04-24T03:02:51.223Z,0.00
2018-04-24T03:03:51.243Z,0.00
2018-04-24T03:04:51.279Z,0.00
2018-04-24T03:05:51.270Z,0.00
2018-04-24T03:06:51.323Z,0.00
2018-04-24T03:07:51.313Z,0.00
2018-04-24T03:08:51.325Z,0.00
2018-04-24T03:09:51.348Z,0.00
2018-04-24T03:10:51.360Z,0.00
2018-04-24T03:11:51.436Z,0.00
2018-04-24T03:12:51.395Z,0.00
2018-04-24T03:13:51.406Z,0.00
2018-04-24T03:14:51.429Z,0.00
2018-04-24T03:15:51.451Z,0.00
2018-04-24T03:16:51.461Z,0.00
2018-04-24T03:17:51.476Z,0.00
2018-04-24T03:18:51.511Z,0.00
2018-04-24T03:19:51.510Z,0.00
2018-04-24T03:20:51.534Z,0.00
2018-04-24T03:21:51.557Z,0.00
2018-04-24T03:22:51.564Z,0.00
2018-04-24T03:23:51.581Z,0.00
2018-04-24T03:24:51.599Z,0.00
2018-04-24T03:25:51.622Z,0.00
2018-04-24T03:26:51.637Z,0.00
2018-04-24T03:27:51.650Z,0.00
2018-04-24T03:28:51.722Z,4.00
2018-04-24T03:29:51.684Z,4.00
2018-04-24T03:30:51.701Z,4.00
2018-04-24T03:31:51.716Z,4.00
2018-04-24T03:32:51.740Z,4.00
2018-04-24T03:33:51.754Z,4.00
2018-04-24T03:34:51.788Z,0.00
2018-04-24T03:35:51.790Z,0.00
2018-04-24T03:36:51.807Z,0.00
2018-04-24T03:37:51.829Z,4.00
2018-04-24T03:38:51.841Z,4.00
2018-04-24T03:39:51.860Z,4.00
2018-04-24T03:40:51.885Z,4.00
2018-04-24T03:41:51.911Z,4.00
2018-04-24T03:42:51.915Z,8.00
2018-04-24T03:43:52.055Z,4.00
2018-04-24T03:44:51.950Z,8.00
2018-04-24T03:45:51.964Z,8.00
2018-04-24T03:46:51.978Z,12.00
2018-04-24T03:47:51.999Z,12.00
2018-04-24T03:48:52.020Z,12.00
2018-04-24T03:49:52.039Z,16.00
2018-04-24T03:50:52.082Z,16.00
2018-04-24T03:51:52.087Z,24.00
2018-04-24T03:52:52.095Z,24.00
2018-04-24T03:53:52.115Z,28.00
2018-04-24T03:54:52.124Z,32.00
2018-04-24T03:55:52.137Z,36.00
2018-04-24T03:56:52.160Z,44.00
2018-04-24T03:57:52.168Z,52.00
2018-04-24T03:58:52.206Z,56.00
2018-04-24T03:59:52.217Z,64.00
2018-04-24T04:00:52.225Z,72.00
2018-04-24T04:01:52.242Z,80.00
2018-04-24T04:02:52.347Z,88.00
2018-04-24T04:03:52.294Z,100.00
2018-04-24T04:04:52.300Z,112.00
2018-04-24T04:05:52.328Z,128.00
2018-04-24T04:06:52.329Z,140.00
2018-04-24T04:07:52.461Z,160.00
2018-04-24T04:08:52.362Z,184.00
2018-04-24T04:09:52.386Z,208.00
2018-04-24T04:10:52.406Z,236.00
2018-04-24T04:11:52.431Z,268.00
2018-04-24T04:12:52.462Z,304.00
2018-04-24T04:13:52.451Z,340.00
2018-04-24T04:14:52.472Z,380.00
2018-04-24T04:15:52.501Z,424.00
2018-04-24T04:16:52.506Z,472.00
2018-04-24T04:17:52.550Z,520.00
2018-04-24T04:18:52.638Z,576.00
2018-04-24T04:19:52.564Z,636.00
2018-04-24T04:20:52.601Z,712.00
2018-04-24T04:21:52.594Z,796.00
2018-04-24T04:22:52.620Z,888.00
2018-04-24T04:23:52.633Z,992.00
2018-04-24T04:24:52.670Z,1100.00
2018-04-24T04:25:52.664Z,1216.00
2018-04-24T04:26:52.955Z,1352.00
2018-04-24T04:27:52.877Z,1512.00
2018-04-24T04:28:52.712Z,1672.00
2018-04-24T04:29:52.727Z,1824.00
2018-04-24T04:30:52.765Z,1964.00
2018-04-24T04:31:52.771Z,2104.00
2018-04-24T04:32:52.831Z,2248.00
2018-04-24T04:33:52.835Z,2392.00
2018-04-24T04:34:52.908Z,2520.00
2018-04-24T04:35:52.882Z,2632.00
2018-04-24T04:36:52.865Z,2736.00
2018-04-24T04:37:52.892Z,2856.00
2018-04-24T04:38:52.905Z,3000.00
2018-04-24T04:39:52.906Z,3148.00
2018-04-24T04:40:52.935Z,3284.00
2018-04-24T04:41:52.942Z,3408.00
2018-04-24T04:42:52.958Z,3564.00
2018-04-24T04:43:52.979Z,3732.00
2018-04-24T04:44:53.003Z,3908.00
2018-04-24T04:45:53.149Z,4108.00
2018-04-24T04:46:53.041Z,4324.00
2018-04-24T04:47:53.061Z,4524.00
2018-04-24T04:48:53.076Z,4720.00
2018-04-24T04:49:53.083Z,4988.00
2018-04-24T04:50:53.135Z,5376.00
2018-04-24T04:51:53.122Z,5832.00
2018-04-24T04:52:53.200Z,6232.00
2018-04-24T04:53:53.249Z,7952.00
2018-04-24T04:54:53.211Z,11288.00
2018-04-24T04:55:53.194Z,13632.00
2018-04-24T04:56:53.221Z,14496.00
2018-04-24T04:57:53.321Z,16000.00
2018-04-24T04:58:53.259Z,17120.00
2018-04-24T04:59:53.312Z,14432.00
2018-04-24T05:00:53.292Z,15200.00
2018-04-24T05:01:53.313Z,18208.00
2018-04-24T05:02:53.319Z,17984.00
2018-04-24T05:03:53.351Z,19808.00
2018-04-24T05:04:53.361Z,21792.00
2018-04-24T05:05:53.461Z,17632.00
2018-04-24T05:06:53.437Z,14528.00
2018-04-24T05:07:53.419Z,12536.00
2018-04-24T05:08:53.443Z,8172.00
2018-04-24T05:09:53.465Z,8340.00
2018-04-24T05:10:53.491Z,10108.00
2018-04-24T05:11:53.564Z,14976.00
2018-04-24T05:12:53.531Z,17280.00
2018-04-24T05:13:53.545Z,11948.00
2018-04-24T05:14:53.587Z,11668.00
2018-04-24T05:15:53.589Z,15840.00
2018-04-24T05:16:53.612Z,22112.00
2018-04-24T05:17:53.822Z,19744.00
2018-04-24T05:18:53.724Z,21280.00
2018-04-24T05:19:53.759Z,31584.00
2018-04-24T05:20:53.790Z,30400.00
2018-04-24T05:21:53.767Z,23808.00
2018-04-24T05:22:53.745Z,27360.00
2018-04-24T05:23:53.750Z,24128.00
2018-04-24T05:24:53.773Z,22112.00
2018-04-24T05:25:53.797Z,21568.00
2018-04-24T05:26:53.822Z,19232.00
2018-04-24T05:27:53.849Z,17248.00
2018-04-24T05:28:53.874Z,16640.00
2018-04-24T05:29:53.939Z,15264.00
2018-04-24T05:30:53.904Z,17280.00
2018-04-24T05:31:53.957Z,17408.00
2018-04-24T05:32:53.947Z,17408.00
2018-04-24T05:33:53.972Z,19232.00
2018-04-24T05:34:53.994Z,14380.00
2018-04-24T05:35:54.016Z,13132.00
2018-04-24T05:36:54.163Z,12544.00
2018-04-24T05:37:54.062Z,12312.00
2018-04-24T05:38:54.082Z,12472.00
2018-04-24T05:39:54.109Z,11696.00
2018-04-24T05:40:54.148Z,11456.00
2018-04-24T05:41:54.146Z,11396.00
2018-04-24T05:42:54.174Z,11656.00
2018-04-24T05:43:54.260Z,12108.00
2018-04-24T05:44:54.280Z,12832.00
2018-04-24T05:45:54.237Z,14392.00
2018-04-24T05:46:54.350Z,23552.00
2018-04-24T05:47:54.285Z,37984.00
2018-04-24T05:48:54.304Z,43776.00
2018-04-24T05:49:54.323Z,39648.00
2018-04-24T05:50:54.397Z,42208.00
2018-04-24T05:51:54.373Z,47360.00
2018-04-24T05:52:54.456Z,37440.00
2018-04-24T05:53:54.422Z,23072.00
2018-04-24T05:54:54.473Z,14524.00
2018-04-24T05:55:54.464Z,12600.00
2018-04-24T05:56:54.475Z,11628.00
2018-04-24T05:57:54.524Z,11600.00
2018-04-24T05:58:54.602Z,11728.00
2018-04-24T05:59:54.715Z,11772.00
2018-04-24T06:00:54.569Z,12108.00
2018-04-24T06:01:54.662Z,13792.00
2018-04-24T06:02:54.604Z,12188.00
2018-04-24T06:03:54.700Z,12356.00
2018-04-24T06:04:54.642Z,13248.00
2018-04-24T06:05:54.688Z,18048.00
2018-04-24T06:06:54.697Z,17536.00
2018-04-24T06:07:54.739Z,30080.00
2018-04-24T06:08:54.746Z,44128.00
2018-04-24T06:09:54.749Z,53472.00
2018-04-24T06:10:54.773Z,49568.00
2018-04-24T06:11:54.891Z,48864.00
2018-04-24T06:12:54.826Z,49760.00
2018-04-24T06:13:54.889Z,41472.00
2018-04-24T06:14:54.908Z,51200.00
2018-04-24T06:15:55.046Z,45984.00
2018-04-24T06:16:54.970Z,46912.00
2018-04-24T06:17:54.931Z,52160.00
2018-04-24T06:18:54.952Z,51488.00
2018-04-24T06:19:55.127Z,60032.00
2018-04-24T06:20:55.087Z,58304.00
2018-04-24T06:21:55.091Z,54368.00
2018-04-24T06:22:55.042Z,55104.00
2018-04-24T06:23:55.073Z,53408.00
2018-04-24T06:24:55.216Z,55168.00
2018-04-24T06:25:55.111Z,56736.00
2018-04-24T06:26:55.236Z,58112.00
2018-04-24T06:27:55.163Z,55264.00
2018-04-24T06:28:55.189Z,51680.00
2018-04-24T06:29:55.262Z,56512.00
2018-04-24T06:30:55.232Z,53248.00
2018-04-24T06:31:55.263Z,53792.00
2018-04-24T06:32:55.395Z,45024.00
2018-04-24T06:33:55.306Z,33984.00
2018-04-24T06:34:55.331Z,28992.00
2018-04-24T06:35:55.417Z,26688.00
2018-04-24T06:36:55.415Z,28160.00
2018-04-24T06:37:55.408Z,18432.00
2018-04-24T06:38:55.434Z,16268.00
2018-04-24T06:39:55.456Z,15984.00
2018-04-24T06:40:55.488Z,16236.00
2018-04-24T06:41:55.556Z,16864.00
2018-04-24T06:42:55.568Z,18048.00
2018-04-24T06:43:55.557Z,18432.00
2018-04-24T06:44:55.599Z,14260.00
2018-04-24T06:45:55.656Z,12984.00
2018-04-24T06:46:55.693Z,12672.00
2018-04-24T06:47:55.699Z,12532.00
2018-04-24T06:48:55.668Z,12992.00
2018-04-24T06:49:55.696Z,14200.00
2018-04-24T06:50:55.715Z,15116.00
2018-04-24T06:51:55.839Z,15644.00
2018-04-24T06:52:55.765Z,16152.00
2018-04-24T06:53:55.790Z,17056.00
2018-04-24T06:54:55.813Z,17696.00
2018-04-24T06:55:55.832Z,15512.00
2018-04-24T06:56:55.852Z,14728.00
2018-04-24T06:57:55.877Z,14420.00
2018-04-24T06:58:55.902Z,14184.00
2018-04-24T06:59:55.924Z,13436.00
2018-04-24T07:00:56.039Z,13264.00
2018-04-24T07:01:55.982Z,13208.00
2018-04-24T07:02:56.082Z,13516.00
2018-04-24T07:03:56.169Z,13444.00
2018-04-24T07:04:56.030Z,12488.00
2018-04-24T07:05:56.058Z,11624.00
2018-04-24T07:06:56.192Z,11208.00
2018-04-24T07:07:56.092Z,10588.00
2018-04-24T07:08:56.138Z,10532.00
2018-04-24T07:09:56.126Z,10456.00
2018-04-24T07:10:56.178Z,10284.00
2018-04-24T07:11:56.172Z,10536.00
2018-04-24T07:12:56.202Z,10812.00
2018-04-24T07:13:56.220Z,11332.00
2018-04-24T07:14:56.250Z,12132.00
2018-04-24T07:15:56.253Z,13156.00
2018-04-24T07:16:56.360Z,13708.00
2018-04-24T07:17:56.301Z,14976.00
2018-04-24T07:18:56.327Z,16300.00
2018-04-24T07:19:56.347Z,17600.00
2018-04-24T07:20:56.498Z,18848.00
2018-04-24T07:21:56.458Z,18048.00
2018-04-24T07:22:56.531Z,17888.00
2018-04-24T07:23:56.433Z,18560.00
2018-04-24T07:24:56.493Z,19264.00
2018-04-24T07:25:56.541Z,18752.00
2018-04-24T07:26:56.488Z,16244.00
2018-04-24T07:27:56.503Z,14012.00
2018-04-24T07:28:56.529Z,12072.00
2018-04-24T07:29:56.549Z,10824.00
2018-04-24T07:30:56.629Z,10044.00
2018-04-24T07:31:56.588Z,9276.00
2018-04-24T07:32:56.700Z,8776.00
2018-04-24T07:33:56.658Z,8848.00
2018-04-24T07:34:56.649Z,9256.00
2018-04-24T07:35:56.673Z,9460.00
2018-04-24T07:36:56.687Z,10004.00
2018-04-24T07:37:56.715Z,10584.00
2018-04-24T07:38:56.742Z,11524.00
2018-04-24T07:39:56.758Z,12512.00
2018-04-24T07:40:56.882Z,13196.00
2018-04-24T07:41:56.795Z,13208.00
2018-04-24T07:42:56.812Z,13556.00
2018-04-24T07:43:56.837Z,15288.00
2018-04-24T07:44:56.885Z,15216.00
2018-04-24T07:45:56.873Z,16568.00
2018-04-24T07:46:57.060Z,18592.00
2018-04-24T07:47:56.916Z,18848.00
2018-04-24T07:48:56.943Z,18528.00
2018-04-24T07:49:57.007Z,18720.00
2018-04-24T07:50:57.005Z,16016.00
2018-04-24T07:51:56.997Z,14896.00
2018-04-24T07:52:57.020Z,14772.00
2018-04-24T07:53:57.042Z,14416.00
2018-04-24T07:54:57.075Z,14152.00
2018-04-24T07:55:57.112Z,15264.00
2018-04-24T07:56:57.113Z,16360.00
2018-04-24T07:57:57.137Z,16040.00
2018-04-24T07:58:57.163Z,13900.00
2018-04-24T07:59:57.240Z,13004.00
2018-04-24T08:00:57.208Z,14296.00
2018-04-24T08:01:57.324Z,14940.00
2018-04-24T08:02:57.232Z,14660.00
2018-04-24T08:03:57.246Z,14744.00
2018-04-24T08:04:57.270Z,14284.00
2018-04-24T08:05:57.292Z,14096.00
2018-04-24T08:06:57.322Z,12988.00
2018-04-24T08:07:57.392Z,12756.00
2018-04-24T08:08:57.464Z,12640.00
2018-04-24T08:09:57.434Z,13012.00
2018-04-24T08:10:57.403Z,13804.00
2018-04-24T08:11:57.437Z,14324.00
2018-04-24T08:12:57.559Z,15384.00
2018-04-24T08:13:57.457Z,17664.00
2018-04-24T08:14:57.483Z,18624.00
2018-04-24T08:15:57.501Z,19456.00
2018-04-24T08:16:57.517Z,19872.00
2018-04-24T08:17:57.544Z,19200.00
2018-04-24T08:18:57.564Z,17600.00
2018-04-24T08:19:57.578Z,16136.00
2018-04-24T08:20:57.670Z,14952.00
2018-04-24T08:21:57.653Z,14184.00
2018-04-24T08:22:57.775Z,13336.00
2018-04-24T08:23:57.662Z,12884.00
2018-04-24T08:24:57.900Z,12892.00
2018-04-24T08:25:57.783Z,12952.00
2018-04-24T08:26:57.747Z,12840.00
2018-04-24T08:27:57.748Z,13604.00
2018-04-24T08:28:57.766Z,13776.00
2018-04-24T08:29:57.789Z,13796.00
2018-04-24T08:30:57.812Z,13308.00
2018-04-24T08:31:57.836Z,12612.00
2018-04-24T08:32:57.863Z,12388.00
2018-04-24T08:33:57.872Z,11904.00
2018-04-24T08:34:57.953Z,11260.00
2018-04-24T08:35:57.915Z,10900.00
2018-04-24T08:36:57.938Z,11104.00
2018-04-24T08:37:57.951Z,11088.00
2018-04-24T08:38:58.052Z,11620.00
2018-04-24T08:39:58.035Z,12016.00
2018-04-24T08:40:58.045Z,11824.00
2018-04-24T08:41:58.035Z,11596.00
2018-04-24T08:42:58.096Z,11532.00
2018-04-24T08:43:58.130Z,11384.00
2018-04-24T08:44:58.099Z,11400.00
2018-04-24T08:45:58.120Z,11440.00
2018-04-24T08:46:58.141Z,10800.00
2018-04-24T08:47:58.212Z,9968.00
2018-04-24T08:48:58.258Z,8792.00
2018-04-24T08:49:58.210Z,7844.00
2018-04-24T08:50:58.225Z,6560.00
2018-04-24T08:51:58.242Z,5576.00
2018-04-24T08:52:58.259Z,5068.00
2018-04-24T08:53:58.291Z,4860.00
2018-04-24T08:54:58.386Z,4600.00
2018-04-24T08:55:58.327Z,4300.00
2018-04-24T08:56:58.408Z,4184.00
2018-04-24T08:57:58.447Z,4316.00
2018-04-24T08:58:58.387Z,4512.00
2018-04-24T08:59:58.412Z,4732.00
2018-04-24T09:00:58.427Z,4756.00
2018-04-24T09:01:58.477Z,4636.00
2018-04-24T09:02:58.485Z,4892.00
2018-04-24T09:03:58.490Z,5612.00
2018-04-24T09:04:58.552Z,6756.00
2018-04-24T09:05:58.532Z,7332.00
2018-04-24T09:06:58.551Z,7676.00
2018-04-24T09:07:58.579Z,8280.00
2018-04-24T09:08:58.604Z,8660.00
2018-04-24T09:09:58.620Z,8084.00
2018-04-24T09:10:58.629Z,7312.00
2018-04-24T09:11:58.657Z,6812.00
2018-04-24T09:12:58.708Z,6212.00
2018-04-24T09:13:58.860Z,5824.00
2018-04-24T09:14:58.721Z,5620.00
2018-04-24T09:15:58.728Z,5908.00
2018-04-24T09:16:58.772Z,6144.00
2018-04-24T09:17:58.775Z,6124.00
2018-04-24T09:18:58.791Z,5924.00
2018-04-24T09:19:58.825Z,5884.00
2018-04-24T09:20:58.836Z,5856.00
2018-04-24T09:21:58.923Z,5912.00
2018-04-24T09:22:58.881Z,6080.00
2018-04-24T09:23:58.897Z,6024.00
2018-04-24T09:24:59.012Z,5880.00
2018-04-24T09:25:58.929Z,5872.00
2018-04-24T09:26:59.023Z,6008.00
2018-04-24T09:27:58.971Z,5944.00
2018-04-24T09:28:59.097Z,5788.00
2018-04-24T09:29:59.097Z,5104.00
2018-04-24T09:30:59.031Z,4748.00
2018-04-24T09:31:59.171Z,4760.00
2018-04-24T09:32:59.073Z,5100.00
2018-04-24T09:33:59.090Z,5436.00
2018-04-24T09:34:59.111Z,5292.00
2018-04-24T09:35:59.139Z,5200.00
2018-04-24T09:36:59.259Z,5152.00
2018-04-24T09:37:59.187Z,5144.00
2018-04-24T09:38:59.271Z,5156.00
2018-04-24T09:39:59.233Z,5120.00
2018-04-24T09:40:59.232Z,5140.00
2018-04-24T09:41:59.295Z,5060.00
2018-04-24T09:42:59.280Z,5048.00
2018-04-24T09:43:59.370Z,5300.00
2018-04-24T09:44:59.325Z,5232.00
2018-04-24T09:45:59.437Z,5104.00
2018-04-24T09:46:59.361Z,5576.00
2018-04-24T09:47:59.532Z,6420.00
2018-04-24T09:48:59.480Z,7340.00
2018-04-24T09:49:59.409Z,7636.00
2018-04-24T09:50:59.453Z,7480.00
2018-04-24T09:51:59.454Z,7360.00
2018-04-24T09:52:59.534Z,6776.00
2018-04-24T09:53:59.492Z,6264.00
2018-04-24T09:54:59.578Z,6036.00
2018-04-24T09:55:59.531Z,6596.00
2018-04-24T09:56:59.675Z,8716.00
2018-04-24T09:57:59.638Z,9756.00
2018-04-24T09:58:59.688Z,10116.00
2018-04-24T09:59:59.621Z,9128.00
2018-04-24T10:00:59.630Z,8420.00
2018-04-24T10:01:59.679Z,7532.00
2018-04-24T10:02:59.668Z,6536.00
2018-04-24T10:03:59.686Z,6744.00
2018-04-24T10:04:59.786Z,6108.00
2018-04-24T10:05:59.874Z,6040.00
2018-04-24T10:06:59.750Z,5992.00
2018-04-24T10:07:59.777Z,5828.00
2018-04-24T10:08:59.791Z,5936.00
2018-04-24T10:09:59.809Z,6656.00
2018-04-24T10:10:59.833Z,7216.00
2018-04-24T10:11:59.847Z,7168.00
2018-04-24T10:12:59.927Z,6716.00
2018-04-24T10:14:00.108Z,6840.00
2018-04-24T10:14:59.913Z,7068.00
2018-04-24T10:15:59.931Z,7744.00
2018-04-24T10:16:59.959Z,8172.00
2018-04-24T10:17:59.965Z,8160.00
2018-04-24T10:19:00.012Z,7776.00
2018-04-24T10:20:00.011Z,7052.00
2018-04-24T10:21:00.037Z,6580.00
2018-04-24T10:22:00.051Z,6300.00
2018-04-24T10:23:00.120Z,6144.00
2018-04-24T10:24:00.090Z,6096.00
2018-04-24T10:25:00.113Z,6404.00
2018-04-24T10:26:00.322Z,6528.00
2018-04-24T10:27:00.156Z,6368.00
2018-04-24T10:28:00.194Z,6552.00
2018-04-24T10:29:00.277Z,6756.00
2018-04-24T10:30:00.223Z,6348.00
2018-04-24T10:31:00.232Z,6592.00
2018-04-24T10:32:00.267Z,6332.00
2018-04-24T10:33:00.267Z,5928.00
2018-04-24T10:34:00.295Z,5836.00
2018-04-24T10:35:00.315Z,5980.00
2018-04-24T10:36:00.334Z,5336.00
2018-04-24T10:37:00.351Z,4968.00
2018-04-24T10:38:00.365Z,5432.00
2018-04-24T10:39:00.390Z,5840.00
2018-04-24T10:40:00.494Z,6204.00
2018-04-24T10:41:00.425Z,6512.00
2018-04-24T10:42:00.445Z,6960.00
2018-04-24T10:43:00.469Z,6808.00
2018-04-24T10:44:00.489Z,6708.00
2018-04-24T10:45:00.554Z,7500.00
2018-04-24T10:46:00.650Z,8380.00
2018-04-24T10:47:00.554Z,8736.00
2018-04-24T10:48:00.615Z,8744.00
2018-04-24T10:49:00.587Z,8496.00
2018-04-24T10:50:00.615Z,8648.00
2018-04-24T10:51:00.634Z,8944.00
2018-04-24T10:52:00.652Z,8924.00
2018-04-24T10:53:00.672Z,9164.00
2018-04-24T10:54:00.695Z,9436.00
2018-04-24T10:55:00.775Z,8752.00
2018-04-24T10:56:00.833Z,7800.00
2018-04-24T10:57:00.753Z,7560.00
2018-04-24T10:58:00.771Z,7876.00
2018-04-24T10:59:00.798Z,8260.00
2018-04-24T11:00:00.815Z,8700.00
2018-04-24T11:01:00.843Z,9244.00
2018-04-24T11:02:01.020Z,9952.00
2018-04-24T11:03:00.903Z,10940.00
2018-04-24T11:04:00.894Z,12668.00
2018-04-24T11:05:00.919Z,13108.00
2018-04-24T11:06:00.949Z,12504.00
2018-04-24T11:07:01.044Z,12484.00
2018-04-24T11:08:01.018Z,11164.00
2018-04-24T11:09:01.107Z,9840.00
2018-04-24T11:10:01.014Z,8960.00
2018-04-24T11:11:01.140Z,8556.00
2018-04-24T11:12:01.055Z,8484.00
2018-04-24T11:13:01.179Z,7924.00
2018-04-24T11:14:01.103Z,7616.00
2018-04-24T11:15:01.211Z,7340.00
2018-04-24T11:16:01.134Z,7112.00
2018-04-24T11:17:01.230Z,7000.00
2018-04-24T11:18:01.175Z,7116.00
2018-04-24T11:19:01.214Z,6992.00
2018-04-24T11:20:01.374Z,7032.00
2018-04-24T11:21:01.237Z,6724.00
2018-04-24T11:22:01.276Z,6344.00
2018-04-24T11:23:01.388Z,6232.00
2018-04-24T11:24:01.425Z,6104.00
2018-04-24T11:25:01.343Z,5832.00
2018-04-24T11:26:01.358Z,5616.00
2018-04-24T11:27:01.370Z,5360.00
2018-04-24T11:28:01.436Z,5548.00
2018-04-24T11:29:01.462Z,5908.00
2018-04-24T11:30:01.430Z,5912.00
2018-04-24T11:31:01.443Z,6348.00
2018-04-24T11:32:01.489Z,6648.00
2018-04-24T11:33:01.511Z,6804.00
2018-04-24T11:34:01.601Z,7052.00
2018-04-24T11:35:01.524Z,6936.00
2018-04-24T11:36:01.568Z,7068.00
2018-04-24T11:37:01.574Z,7088.00
2018-04-24T11:38:01.600Z,6984.00
2018-04-24T11:39:01.606Z,7300.00
2018-04-24T11:40:01.640Z,7304.00
2018-04-24T11:41:01.714Z,7248.00
2018-04-24T11:42:01.669Z,6828.00
2018-04-24T11:43:01.687Z,6408.00
2018-04-24T11:44:01.727Z,6288.00
2018-04-24T11:45:01.737Z,6464.00
2018-04-24T11:46:01.844Z,6980.00
2018-04-24T11:47:01.769Z,7640.00
2018-04-24T11:48:01.832Z,7928.00
2018-04-24T11:49:01.866Z,7832.00
2018-04-24T11:50:01.845Z,7696.00
2018-04-24T11:51:01.866Z,8028.00
2018-04-24T11:52:02.086Z,8124.00
2018-04-24T11:53:01.900Z,7592.00
2018-04-24T11:54:01.922Z,7652.00
2018-04-24T11:55:02.007Z,7676.00
2018-04-24T11:56:01.976Z,7396.00
2018-04-24T11:57:01.997Z,7312.00
2018-04-24T11:58:02.089Z,7280.00
2018-04-24T11:59:02.175Z,7688.00
2018-04-24T12:00:02.085Z,7856.00
2018-04-24T12:01:02.058Z,7648.00
2018-04-24T12:02:02.083Z,7016.00
2018-04-24T12:03:02.111Z,6552.00
2018-04-24T12:04:02.200Z,5948.00
2018-04-24T12:05:02.207Z,5424.00
2018-04-24T12:06:02.194Z,5452.00
2018-04-24T12:07:02.259Z,5668.00
2018-04-24T12:08:02.215Z,6140.00
2018-04-24T12:09:02.230Z,7476.00
2018-04-24T12:10:02.281Z,10156.00
2018-04-24T12:11:02.335Z,10956.00
2018-04-24T12:12:02.291Z,10220.00
2018-04-24T12:13:02.320Z,10280.00
2018-04-24T12:14:02.331Z,9852.00
2018-04-24T12:15:02.354Z,10208.00
2018-04-24T12:16:02.376Z,10388.00
2018-04-24T12:17:02.392Z,10204.00
2018-04-24T12:18:02.572Z,10840.00
2018-04-24T12:19:02.434Z,12116.00
2018-04-24T12:20:02.451Z,14456.00
2018-04-24T12:21:02.507Z,16800.00